PWSweather.com
Personal Weather Stations
Station Observations
948974
Valtournenche, AostaIT 11028

ValtournencheAostaIT 11028

Lat: 45.877222, Lon: 7.625556

Elevation: 5085.3018

Station Type: PCE-FWS 20

http://www.cdso.it

High Low Average
Temperature 57.1°F13.9°C 41.0°F5.0°C 46.7°F8.2°C
Dew Point 36.2°F2.3°C 8.1°F-13.3°C 28.6°F-1.9°C
Winds 11.0 mph 17.7 kmh 1.0 mph 1.6 kmh 5.0 mph SSW8.0 kmh SSW
Wind Gusts 22.0 mph35.4 kmh 4.0 mph6.4 kmh 10.0 mph16.1 kmh
Humidity 74% 24% 51%
Pressure 30.20 in1022.7 mb 29.90 in1012.5 mb -
Precipitation 0.00 in0.0 mm - -
Hour Temp Dew Point Humidity Winds Wind Gusts Pressure Precip Precip Rate Daily Precip Total
12:02 AM 41.9°F5.5°C 30.6°F-0.8°C 64% 4.0 mph NW6.4 kmh NW 8.0 mph12.9 kmh 30.20 in1022.7 mb 0.00 in0.0 mm 0.00 in0.0 mm 0.00 in0.0 mm
12:23 AM 43.2°F6.2°C 30.6°F-0.8°C 61% 4.0 mph NW6.4 kmh NW 8.0 mph12.9 kmh 30.17 in1021.7 mb 0.00 in0.0 mm 0.00 in0.0 mm 0.00 in0.0 mm
12:44 AM 43.7°F6.5°C 30.3°F-0.9°C 59% 6.0 mph NW9.7 kmh NW 8.0 mph12.9 kmh 30.16 in1021.3 mb 0.00 in0.0 mm 0.00 in0.0 mm 0.00 in0.0 mm
01:03 AM 42.0°F5.6°C 28.9°F-1.7°C 60% 3.0 mph NW4.8 kmh NW 4.0 mph6.4 kmh 30.18 in1022.0 mb 0.00 in0.0 mm 0.00 in0.0 mm 0.00 in0.0 mm
01:21 AM 41.0°F5.0°C 30.0°F-1.1°C 65% 3.0 mph NW4.8 kmh NW 5.0 mph8.0 kmh 30.19 in1022.4 mb 0.00 in0.0 mm 0.00 in0.0 mm 0.00 in0.0 mm
01:42 AM 41.4°F5.2°C 29.8°F-1.2°C 63% 4.0 mph NW6.4 kmh NW 7.0 mph11.3 kmh 30.18 in1022.0 mb 0.00 in0.0 mm 0.00 in0.0 mm 0.00 in0.0 mm
02:03 AM 41.1°F5.1°C 29.8°F-1.2°C 64% 3.0 mph NW4.8 kmh NW 5.0 mph8.0 kmh 30.17 in1021.7 mb 0.00 in0.0 mm 0.00 in0.0 mm 0.00 in0.0 mm
02:21 AM 42.7°F5.9°C 29.8°F-1.2°C 60% 5.0 mph NW8.0 kmh NW 8.0 mph12.9 kmh 30.15 in1021.0 mb 0.00 in0.0 mm 0.00 in0.0 mm 0.00 in0.0 mm
02:42 AM 43.6°F6.4°C 29.4°F-1.4°C 57% 4.0 mph NW6.4 kmh NW 7.0 mph11.3 kmh 30.14 in1020.7 mb 0.00 in0.0 mm 0.00 in0.0 mm 0.00 in0.0 mm
03:03 AM 44.0°F6.7°C 29.2°F-1.6°C 56% 5.0 mph NW8.0 kmh NW 8.0 mph12.9 kmh 30.13 in1020.3 mb 0.00 in0.0 mm 0.00 in0.0 mm 0.00 in0.0 mm
03:21 AM 43.8°F6.6°C 30.1°F-1.1°C 58% 5.0 mph NW8.0 kmh NW 9.0 mph14.5 kmh 30.12 in1020.0 mb 0.00 in0.0 mm 0.00 in0.0 mm 0.00 in0.0 mm
03:42 AM 43.1°F6.2°C 30.4°F-0.9°C 61% 4.0 mph NW6.4 kmh NW 8.0 mph12.9 kmh 30.11 in1019.6 mb 0.00 in0.0 mm 0.00 in0.0 mm 0.00 in0.0 mm
04:03 AM 43.2°F6.2°C 31.1°F-0.5°C 62% 5.0 mph NW8.0 kmh NW 8.0 mph12.9 kmh 30.12 in1020.0 mb 0.00 in0.0 mm 0.00 in0.0 mm 0.00 in0.0 mm
04:21 AM 43.1°F6.2°C 31.2°F-0.4°C 63% 4.0 mph NW6.4 kmh NW 7.0 mph11.3 kmh 30.11 in1019.6 mb 0.00 in0.0 mm 0.00 in0.0 mm 0.00 in0.0 mm
04:42 AM 42.7°F5.9°C 31.4°F-0.3°C 64% 3.0 mph NW4.8 kmh NW 7.0 mph11.3 kmh 30.11 in1019.6 mb 0.00 in0.0 mm 0.00 in0.0 mm 0.00 in0.0 mm
05:03 AM 41.6°F5.3°C 31.1°F-0.5°C 66% 3.0 mph NW4.8 kmh NW 5.0 mph8.0 kmh 30.12 in1020.0 mb 0.00 in0.0 mm 0.00 in0.0 mm 0.00 in0.0 mm
05:21 AM 42.9°F6.1°C 32.2°F0.1°C 66% 5.0 mph NW8.0 kmh NW 10.0 mph16.1 kmh 30.11 in1019.6 mb 0.00 in0.0 mm 0.00 in0.0 mm 0.00 in0.0 mm
05:42 AM 42.6°F5.9°C 31.9°F-0.1°C 66% 3.0 mph NW4.8 kmh NW 5.0 mph8.0 kmh 30.11 in1019.6 mb 0.00 in0.0 mm 0.00 in0.0 mm 0.00 in0.0 mm
06:21 AM 44.5°F6.9°C 32.9°F0.5°C 63% 4.0 mph NW6.4 kmh NW 8.0 mph12.9 kmh 30.11 in1019.6 mb 0.00 in0.0 mm 0.00 in0.0 mm 0.00 in0.0 mm
06:42 AM 43.8°F6.6°C 34.8°F1.6°C 70% 6.0 mph NW9.7 kmh NW 9.0 mph14.5 kmh 30.11 in1019.6 mb 0.00 in0.0 mm 0.00 in0.0 mm 0.00 in0.0 mm
07:03 AM 42.9°F6.1°C 35.0°F1.7°C 73% 2.0 mph NW3.2 kmh NW 6.0 mph9.7 kmh 30.12 in1020.0 mb 0.00 in0.0 mm 0.00 in0.0 mm 0.00 in0.0 mm
07:21 AM 43.3°F6.3°C 35.5°F1.9°C 74% 5.0 mph 8.0 kmh 8.0 mph12.9 kmh 30.11 in1019.6 mb 0.00 in0.0 mm 0.00 in0.0 mm 0.00 in0.0 mm
07:42 AM 43.9°F6.6°C 35.7°F2.1°C 73% 6.0 mph 9.7 kmh 11.0 mph17.7 kmh 30.10 in1019.3 mb 0.00 in0.0 mm 0.00 in0.0 mm 0.00 in0.0 mm
08:03 AM 45.0°F7.2°C 36.1°F2.3°C 71% 6.0 mph 9.7 kmh 8.0 mph12.9 kmh 30.08 in1018.6 mb 0.00 in0.0 mm 0.00 in0.0 mm 0.00 in0.0 mm
08:21 AM 45.9°F7.7°C 36.2°F2.3°C 69% 2.0 mph 3.2 kmh 4.0 mph6.4 kmh 30.07 in1018.3 mb 0.00 in0.0 mm 0.00 in0.0 mm 0.00 in0.0 mm
08:42 AM 46.7°F8.2°C 36.1°F2.3°C 67% 4.0 mph 6.4 kmh 8.0 mph12.9 kmh 30.06 in1017.9 mb 0.00 in0.0 mm 0.00 in0.0 mm 0.00 in0.0 mm
09:03 AM 47.9°F8.8°C 36.1°F2.3°C 64% 4.0 mph 6.4 kmh 6.0 mph9.7 kmh 30.04 in1017.3 mb 0.00 in0.0 mm 0.00 in0.0 mm 0.00 in0.0 mm
09:21 AM 51.5°F10.8°C 35.7°F2.1°C 55% 3.0 mph 4.8 kmh 5.0 mph8.0 kmh 30.01 in1016.3 mb 0.00 in0.0 mm 0.00 in0.0 mm 0.00 in0.0 mm
09:42 AM 54.4°F12.4°C 34.3°F1.3°C 47% 1.0 mph 1.6 kmh 4.0 mph6.4 kmh 29.99 in1015.6 mb 0.00 in0.0 mm 0.00 in0.0 mm 0.00 in0.0 mm
10:03 AM 53.8°F12.1°C 32.0°F0.0°C 44% 3.0 mph SSW4.8 kmh SSW 4.0 mph6.4 kmh 29.99 in1015.6 mb 0.00 in0.0 mm 0.00 in0.0 mm 0.00 in0.0 mm
10:21 AM 53.3°F11.8°C 34.0°F1.1°C 48% 4.0 mph NW6.4 kmh NW 10.0 mph16.1 kmh 29.99 in1015.6 mb 0.00 in0.0 mm 0.00 in0.0 mm 0.00 in0.0 mm
10:42 AM 55.8°F13.2°C 33.6°F0.9°C 43% 2.0 mph NW3.2 kmh NW 4.0 mph6.4 kmh 29.95 in1014.2 mb 0.00 in0.0 mm 0.00 in0.0 mm 0.00 in0.0 mm
11:03 AM 56.6°F13.7°C 31.1°F-0.5°C 38% 4.0 mph S6.4 kmh S 11.0 mph17.7 kmh 29.92 in1013.2 mb 0.00 in0.0 mm 0.00 in0.0 mm 0.00 in0.0 mm
11:21 AM 57.1°F13.9°C 28.5°F-1.9°C 33% 7.0 mph SE11.3 kmh SE 11.0 mph17.7 kmh 29.90 in1012.5 mb 0.00 in0.0 mm 0.00 in0.0 mm 0.00 in0.0 mm
11:42 AM 56.1°F13.4°C 26.9°F-2.8°C 32% 9.0 mph E14.5 kmh E 16.0 mph25.7 kmh 29.91 in1012.9 mb 0.00 in0.0 mm 0.00 in0.0 mm 0.00 in0.0 mm
12:03 PM 55.5°F13.1°C 27.4°F-2.6°C 34% 8.0 mph SE12.9 kmh SE 18.0 mph29.0 kmh 29.92 in1013.2 mb 0.00 in0.0 mm 0.00 in0.0 mm 0.00 in0.0 mm
12:42 PM 52.7°F11.5°C 30.6°F-0.8°C 42% 5.0 mph S8.0 kmh S 12.0 mph19.3 kmh 29.97 in1014.9 mb 0.00 in0.0 mm 0.00 in0.0 mm 0.00 in0.0 mm
01:03 PM 51.4°F10.8°C 32.6°F0.3°C 49% 8.0 mph S12.9 kmh S 16.0 mph25.7 kmh 29.98 in1015.2 mb 0.00 in0.0 mm 0.00 in0.0 mm 0.00 in0.0 mm
01:21 PM 50.5°F10.3°C 34.1°F1.2°C 53% 8.0 mph S12.9 kmh S 18.0 mph29.0 kmh 29.99 in1015.6 mb 0.00 in0.0 mm 0.00 in0.0 mm 0.00 in0.0 mm
01:42 PM 49.2°F9.6°C 35.1°F1.7°C 58% 5.0 mph S8.0 kmh S 15.0 mph24.1 kmh 30.00 in1015.9 mb 0.00 in0.0 mm 0.00 in0.0 mm 0.00 in0.0 mm
02:03 PM 48.9°F9.4°C 35.5°F1.9°C 60% 6.0 mph S9.7 kmh S 13.0 mph20.9 kmh 30.00 in1015.9 mb 0.00 in0.0 mm 0.00 in0.0 mm 0.00 in0.0 mm
02:21 PM 48.9°F9.4°C 34.3°F1.3°C 57% 7.0 mph S11.3 kmh S 13.0 mph20.9 kmh 29.98 in1015.2 mb 0.00 in0.0 mm 0.00 in0.0 mm 0.00 in0.0 mm
02:42 PM 48.7°F9.3°C 33.8°F1.0°C 56% 7.0 mph S11.3 kmh S 18.0 mph29.0 kmh 29.98 in1015.2 mb 0.00 in0.0 mm 0.00 in0.0 mm 0.00 in0.0 mm
03:03 PM 48.8°F9.3°C 34.2°F1.2°C 57% 9.0 mph S14.5 kmh S 17.0 mph27.4 kmh 29.98 in1015.2 mb 0.00 in0.0 mm 0.00 in0.0 mm 0.00 in0.0 mm
03:21 PM 50.5°F10.3°C 34.1°F1.2°C 53% 5.0 mph SE8.0 kmh SE 12.0 mph19.3 kmh 29.95 in1014.2 mb 0.00 in0.0 mm 0.00 in0.0 mm 0.00 in0.0 mm
03:42 PM 51.7°F10.9°C 32.4°F0.2°C 47% 6.0 mph SSE9.7 kmh SSE 11.0 mph17.7 kmh 29.93 in1013.5 mb 0.00 in0.0 mm 0.00 in0.0 mm 0.00 in0.0 mm
04:03 PM 51.8°F11.0°C 29.2°F-1.6°C 42% 9.0 mph S14.5 kmh S 15.0 mph24.1 kmh 29.92 in1013.2 mb 0.00 in0.0 mm 0.00 in0.0 mm 0.00 in0.0 mm
04:21 PM 50.3°F10.2°C 29.7°F-1.3°C 45% 11.0 mph S17.7 kmh S 22.0 mph35.4 kmh 29.94 in1013.9 mb 0.00 in0.0 mm 0.00 in0.0 mm 0.00 in0.0 mm
04:42 PM 50.0°F10.0°C 28.8°F-1.8°C 44% 11.0 mph SW17.7 kmh SW 19.0 mph30.6 kmh 29.93 in1013.5 mb 0.00 in0.0 mm 0.00 in0.0 mm 0.00 in0.0 mm
05:03 PM 49.7°F9.8°C 28.7°F-1.8°C 44% 7.0 mph SSW11.3 kmh SSW 15.0 mph24.1 kmh 29.94 in1013.9 mb 0.00 in0.0 mm 0.00 in0.0 mm 0.00 in0.0 mm
05:21 PM 49.3°F9.6°C 27.6°F-2.4°C 43% 6.0 mph SW9.7 kmh SW 18.0 mph29.0 kmh 29.94 in1013.9 mb 0.00 in0.0 mm 0.00 in0.0 mm 0.00 in0.0 mm
05:42 PM 48.4°F9.1°C 27.2°F-2.7°C 43% 5.0 mph SSW8.0 kmh SSW 12.0 mph19.3 kmh 29.95 in1014.2 mb 0.00 in0.0 mm 0.00 in0.0 mm 0.00 in0.0 mm
06:03 PM 47.7°F8.7°C 27.5°F-2.5°C 45% 5.0 mph S8.0 kmh S 14.0 mph22.5 kmh 29.96 in1014.6 mb 0.00 in0.0 mm 0.00 in0.0 mm 0.00 in0.0 mm
06:21 PM 47.1°F8.4°C 26.8°F-2.9°C 45% 8.0 mph SSE12.9 kmh SSE 16.0 mph25.7 kmh 29.98 in1015.2 mb 0.00 in0.0 mm 0.00 in0.0 mm 0.00 in0.0 mm
06:42 PM 46.2°F7.9°C 27.1°F-2.7°C 47% 5.0 mph SE8.0 kmh SE 9.0 mph14.5 kmh 29.99 in1015.6 mb 0.00 in0.0 mm 0.00 in0.0 mm 0.00 in0.0 mm
07:03 PM 45.1°F7.3°C 26.1°F-3.3°C 47% 3.0 mph NW4.8 kmh NW 8.0 mph12.9 kmh 30.00 in1015.9 mb 0.00 in0.0 mm 0.00 in0.0 mm 0.00 in0.0 mm
07:21 PM 45.7°F7.6°C 22.6°F-5.2°C 40% 7.0 mph E11.3 kmh E 14.0 mph22.5 kmh 29.98 in1015.2 mb 0.00 in0.0 mm 0.00 in0.0 mm 0.00 in0.0 mm
07:42 PM 46.1°F7.8°C 16.0°F-8.9°C 30% 3.0 mph SE4.8 kmh SE 7.0 mph11.3 kmh 29.98 in1015.2 mb 0.00 in0.0 mm 0.00 in0.0 mm 0.00 in0.0 mm
08:21 PM 43.8°F6.6°C 18.8°F-7.3°C 36% 2.0 mph SE3.2 kmh SE 4.0 mph6.4 kmh 30.02 in1016.6 mb 0.00 in0.0 mm 0.00 in0.0 mm 0.00 in0.0 mm
08:42 PM 44.0°F6.7°C 17.2°F-8.2°C 34% 4.0 mph ESE6.4 kmh ESE 9.0 mph14.5 kmh 30.01 in1016.3 mb 0.00 in0.0 mm 0.00 in0.0 mm 0.00 in0.0 mm
09:03 PM 43.7°F6.5°C 18.6°F-7.4°C 36% 2.0 mph NNE3.2 kmh NNE 6.0 mph9.7 kmh 30.02 in1016.6 mb 0.00 in0.0 mm 0.00 in0.0 mm 0.00 in0.0 mm
09:21 PM 42.8°F6.0°C 20.6°F-6.3°C 41% 2.0 mph 3.2 kmh 5.0 mph8.0 kmh 30.03 in1016.9 mb 0.00 in0.0 mm 0.00 in0.0 mm 0.00 in0.0 mm
09:42 PM 42.6°F5.9°C 20.3°F-6.5°C 41% 4.0 mph WSW6.4 kmh WSW 10.0 mph16.1 kmh 30.04 in1017.3 mb 0.00 in0.0 mm 0.00 in0.0 mm 0.00 in0.0 mm
10:03 PM 44.2°F6.8°C 13.5°F-10.3°C 28% 4.0 mph SW6.4 kmh SW 9.0 mph14.5 kmh 30.02 in1016.6 mb 0.00 in0.0 mm 0.00 in0.0 mm 0.00 in0.0 mm
10:21 PM 42.4°F5.8°C 16.7°F-8.5°C 35% 5.0 mph S8.0 kmh S 21.0 mph33.8 kmh 30.04 in1017.3 mb 0.00 in0.0 mm 0.00 in0.0 mm 0.00 in0.0 mm
10:42 PM 42.7°F5.9°C 14.6°F-9.7°C 32% 4.0 mph SSE6.4 kmh SSE 17.0 mph27.4 kmh 30.04 in1017.3 mb 0.00 in0.0 mm 0.00 in0.0 mm 0.00 in0.0 mm
11:03 PM 43.4°F6.3°C 10.4°F-12.0°C 26% 6.0 mph ENE9.7 kmh ENE 12.0 mph19.3 kmh 30.05 in1017.6 mb 0.00 in0.0 mm 0.00 in0.0 mm 0.00 in0.0 mm
11:21 PM 42.8°F6.0°C 9.0°F-12.8°C 24% 5.0 mph SSW8.0 kmh SSW 14.0 mph22.5 kmh 30.05 in1017.6 mb 0.00 in0.0 mm 0.00 in0.0 mm 0.00 in0.0 mm
11:42 PM 42.7°F5.9°C 8.1°F-13.3°C 24% 2.0 mph S3.2 kmh S 6.0 mph9.7 kmh 30.05 in1017.6 mb 0.00 in0.0 mm 0.00 in0.0 mm 0.00 in0.0 mm